LYBE/BEG METAR and TAF weather

Enter ICAO airport designator
Station Type Date Time Source
LYBE METAR 2019/12/09 00:30 UTC NOAA

LYBE 090030Z 05002KT 0600 R12/1200N R30/0550N FZFG NSC M00/M00 Q1015 NOSIG


Station Type Date Time Source
LYBE Decoded METAR 2019/12/09 00:30 UTC NOAA

Beograd / Surcin, Serbia and Montenegro (LYBE) 44-49N 020-17E 99M
Dec 08, 2019 - 07:30 PM EST / 2019.12.09 0030 UTC
Wind: from the NE (050 degrees) at 2 MPH (2 KT):0
Visibility: less than 1 mile:0
Weather: freezing fog
Temperature: 32 F (0 C)
Dew Point: 32 F (0 C)
Relative Humidity: 100%
Pressure (altimeter): 29.97 in. Hg (1015 hPa)
ob: LYBE 090030Z 05002KT 0600 R12/1200N R30/0550N FZFG NSC M00/M00 Q1015 NOSIG
cycle: 0

Station Type Date Time Source
LYBE TAF 2019/12/08 18:21 UTC NOAA

TAF LYBE 081700Z 0818/0918 22005KT 0300 FG VV002 TX09/0913Z TN01/0905Z
TEMPO 0904/0907 150 VV001
BECMG 0908/0910 1500 BR BKN006
BECMG 0910/0912 6000 NSW SCT015

Example: see airport list